Time;durP1;ratioP1;P1;durP2;ratioP2;P2;SDS_P1;SDS_P2;PMS_P1;PMS_P2;Temp;Humidity;BMP_temperature;BMP_pressure;BME280_temperature;BME280_humidity;BME280_pressure;Samples;Min_cycle;Max_cycle;Signal;HPM_P1;HPM_P2
2021/07/30 00:02:00;;;;;;;13.18;7.65;;;13.30;99.90;;;;;;4954571;29;20020;-69
2021/07/30 00:04:25;;;;;;;10.45;7.80;;;13.20;99.90;;;;;;4953699;29;20392;-70
2021/07/30 00:06:51;;;;;;;11.00;8.07;;;13.20;99.90;;;;;;4954442;29;20389;-77
2021/07/30 00:09:17;;;;;;;14.05;7.60;;;13.20;99.90;;;;;;4936865;29;20138;-69
2021/07/30 00:11:42;;;;;;;11.02;7.05;;;13.20;99.90;;;;;;4953946;29;20031;-70
2021/07/30 00:14:08;;;;;;;9.18;6.78;;;13.10;99.90;;;;;;4954465;29;20078;-70
2021/07/30 00:16:34;;;;;;;10.88;7.07;;;13.10;99.90;;;;;;4954238;29;20023;-70
2021/07/30 00:19:00;;;;;;;9.70;6.75;;;13.10;99.90;;;;;;4953811;29;20111;-69
2021/07/30 00:21:26;;;;;;;10.10;8.05;;;13.00;99.90;;;;;;4954216;29;20020;-69
2021/07/30 00:23:51;;;;;;;13.77;7.53;;;13.00;99.90;;;;;;4954300;29;20095;-69
2021/07/30 00:26:17;;;;;;;11.90;7.68;;;13.00;99.90;;;;;;4936319;29;20079;-69
2021/07/30 00:28:43;;;;;;;12.63;8.07;;;12.90;99.90;;;;;;4956874;28;20026;-71
2021/07/30 00:31:08;;;;;;;13.95;7.90;;;12.90;99.90;;;;;;4957776;29;20106;-69
2021/07/30 00:33:34;;;;;;;10.82;6.95;;;12.90;99.90;;;;;;4940002;29;20058;-72
2021/07/30 00:35:59;;;;;;;12.60;8.00;;;12.90;99.90;;;;;;4957881;29;20383;-69
2021/07/30 00:38:25;;;;;;;13.52;7.75;;;12.90;99.90;;;;;;4957333;29;20576;-69
2021/07/30 00:40:50;;;;;;;10.02;7.15;;;12.90;99.90;;;;;;4957128;29;20110;-75
2021/07/30 00:43:16;;;;;;;13.02;7.85;;;12.90;99.90;;;;;;4957336;29;20090;-70
2021/07/30 00:45:41;;;;;;;12.10;7.93;;;12.80;99.90;;;;;;4957643;29;20019;-70
2021/07/30 00:48:08;;;;;;;12.55;7.85;;;12.80;99.90;;;;;;4957042;29;20374;-70
2021/07/30 00:50:34;;;;;;;10.27;7.60;;;12.80;99.90;;;;;;4957250;29;20493;-72
2021/07/30 00:53:00;;;;;;;13.07;7.28;;;12.80;99.90;;;;;;4957585;29;20027;-70
2021/07/30 00:55:26;;;;;;;11.52;8.25;;;12.70;99.90;;;;;;4956872;29;20023;-70
2021/07/30 00:57:55;;;;;;;11.40;7.68;;;12.70;99.90;;;;;;4940082;29;20098;-71
2021/07/30 01:00:21;;;;;;;9.32;8.00;;;12.70;99.90;;;;;;4956282;29;20135;-78
2021/07/30 01:02:47;;;;;;;8.95;7.78;;;12.70;99.90;;;;;;4957230;29;20114;-70
2021/07/30 01:05:13;;;;;;;10.50;7.97;;;12.60;99.90;;;;;;4957196;29;20031;-71
2021/07/30 01:07:39;;;;;;;12.75;7.80;;;12.60;99.90;;;;;;4939286;29;20034;-70
2021/07/30 01:10:05;;;;;;;12.07;8.23;;;12.60;99.90;;;;;;4957051;29;20102;-70
2021/07/30 01:12:31;;;;;;;10.32;6.88;;;12.50;99.90;;;;;;4956919;28;20035;-70
2021/07/30 01:14:57;;;;;;;12.10;8.90;;;12.60;99.90;;;;;;4955380;29;20031;-71
2021/07/30 01:17:25;;;;;;;12.60;8.70;;;12.60;99.90;;;;;;4958729;28;20392;-70
2021/07/30 01:19:54;;;;;;;11.88;8.63;;;12.60;99.90;;;;;;4938565;29;20035;-70
2021/07/30 01:22:26;;;;;;;13.25;8.73;;;12.50;99.90;;;;;;4956089;29;20400;-70
2021/07/30 01:24:53;;;;;;;15.70;8.40;;;12.50;99.90;;;;;;4956902;29;20035;-72
2021/07/30 01:27:19;;;;;;;11.77;7.95;;;12.50;99.90;;;;;;4956487;29;20016;-70
2021/07/30 01:29:44;;;;;;;12.95;8.73;;;12.60;99.90;;;;;;4956144;29;20070;-72
2021/07/30 01:32:10;;;;;;;11.18;8.52;;;12.50;99.90;;;;;;4939526;29;20106;-70
2021/07/30 01:34:35;;;;;;;13.32;8.57;;;12.60;99.90;;;;;;4956670;29;20039;-70
2021/07/30 01:37:01;;;;;;;13.13;8.13;;;12.60;99.90;;;;;;4956165;29;20031;-72
2021/07/30 01:39:27;;;;;;;11.65;8.40;;;12.50;99.90;;;;;;4938798;29;20028;-70
2021/07/30 01:41:52;;;;;;;13.55;8.98;;;12.50;99.90;;;;;;4956711;29;20380;-69
2021/07/30 01:44:18;;;;;;;12.05;7.75;;;12.50;99.90;;;;;;4955513;29;20039;-70
2021/07/30 01:46:43;;;;;;;11.80;8.30;;;12.50;99.90;;;;;;4956501;29;20027;-70
2021/07/30 01:49:09;;;;;;;13.10;8.40;;;12.50;99.90;;;;;;4939273;29;20024;-71
2021/07/30 01:51:34;;;;;;;11.10;8.30;;;12.50;99.90;;;;;;4955448;29;20444;-70
2021/07/30 01:54:00;;;;;;;9.82;8.23;;;12.40;99.90;;;;;;4956374;29;20068;-72
2021/07/30 01:56:26;;;;;;;12.65;8.25;;;12.40;99.90;;;;;;4955997;29;20492;-70
2021/07/30 01:58:51;;;;;;;11.32;8.43;;;12.40;99.90;;;;;;4955629;28;20077;-74
2021/07/30 02:01:17;;;;;;;12.13;8.35;;;12.30;99.90;;;;;;4956553;28;20039;-74
2021/07/30 02:03:42;;;;;;;11.93;8.43;;;12.30;99.90;;;;;;4959188;28;20065;-74
2021/07/30 02:06:09;;;;;;;12.75;8.50;;;12.30;99.90;;;;;;4963901;28;20069;-76
2021/07/30 02:08:37;;;;;;;17.00;9.20;;;12.30;99.90;;;;;;4959305;28;20061;-73
2021/07/30 02:11:13;;;;;;;11.85;8.07;;;12.30;99.90;;;;;;4954622;29;20027;-70
2021/07/30 02:16:24;;;;;;;13.35;8.38;;;12.30;99.90;;;;;;4960129;28;20081;-73
2021/07/30 02:18:51;;;;;;;12.45;7.82;;;12.30;99.90;;;;;;4962002;28;20031;-71
2021/07/30 02:21:17;;;;;;;12.30;8.45;;;12.30;99.90;;;;;;4955093;29;20047;-70
2021/07/30 02:23:43;;;;;;;11.60;8.48;;;12.30;99.90;;;;;;4955830;29;20089;-69
2021/07/30 02:26:09;;;;;;;14.23;8.23;;;12.40;99.90;;;;;;4955193;29;20024;-69
2021/07/30 02:28:35;;;;;;;12.80;8.32;;;12.40;99.90;;;;;;4955452;29;20086;-73
2021/07/30 02:31:00;;;;;;;16.20;8.02;;;12.40;99.90;;;;;;4955517;29;20046;-73
2021/07/30 02:33:26;;;;;;;12.52;8.10;;;12.40;99.90;;;;;;4954687;29;20038;-75
2021/07/30 02:35:51;;;;;;;14.88;7.97;;;12.40;99.90;;;;;;4955708;29;20488;-69
2021/07/30 02:38:17;;;;;;;11.13;8.02;;;12.40;99.90;;;;;;4955263;29;20122;-73
2021/07/30 02:40:43;;;;;;;11.05;8.23;;;12.40;99.90;;;;;;4937763;29;20106;-75
2021/07/30 02:43:08;;;;;;;11.70;7.88;;;12.30;99.90;;;;;;4955641;29;20035;-69
2021/07/30 02:45:34;;;;;;;12.40;8.25;;;12.40;99.90;;;;;;4937977;29;20384;-71
2021/07/30 02:47:59;;;;;;;12.73;8.27;;;12.30;99.90;;;;;;4954856;29;20035;-69
2021/07/30 02:50:25;;;;;;;13.45;7.88;;;12.30;99.90;;;;;;4954285;28;20020;-70
2021/07/30 02:52:50;;;;;;;10.43;8.40;;;12.30;99.90;;;;;;4954766;29;20098;-70
2021/07/30 02:55:16;;;;;;;13.15;8.35;;;12.30;99.90;;;;;;4955030;29;20058;-78
2021/07/30 02:57:44;;;;;;;11.05;7.95;;;12.30;99.90;;;;;;4938018;29;20027;-70
2021/07/30 03:00:10;;;;;;;12.77;8.18;;;12.30;99.90;;;;;;4954492;29;20157;-70
2021/07/30 03:02:35;;;;;;;12.10;7.32;;;12.30;99.90;;;;;;4955177;29;20491;-72
2021/07/30 03:05:01;;;;;;;8.90;7.70;;;12.30;99.90;;;;;;4955195;29;20168;-70
2021/07/30 03:07:26;;;;;;;12.10;8.65;;;12.30;99.90;;;;;;4954176;29;20031;-69
2021/07/30 03:09:52;;;;;;;11.50;8.00;;;12.30;99.90;;;;;;4954787;29;20080;-70
2021/07/30 03:12:17;;;;;;;9.98;7.90;;;12.20;99.90;;;;;;4937762;29;20030;-70
2021/07/30 03:14:43;;;;;;;12.55;9.23;;;12.20;99.90;;;;;;4937471;29;20027;-69
2021/07/30 03:17:09;;;;;;;10.95;7.95;;;12.20;99.90;;;;;;4937842;29;20070;-73
2021/07/30 03:19:34;;;;;;;14.45;8.23;;;12.20;99.90;;;;;;4937321;29;20031;-71
2021/07/30 03:22:00;;;;;;;13.70;8.23;;;12.20;99.90;;;;;;4954198;29;20023;-71
2021/07/30 03:24:25;;;;;;;14.13;8.43;;;12.20;99.90;;;;;;4954525;29;20035;-70
2021/07/30 03:26:51;;;;;;;8.80;7.57;;;12.20;99.90;;;;;;4937660;29;20099;-70
2021/07/30 03:29:17;;;;;;;12.20;8.20;;;12.20;99.90;;;;;;4953927;29;20027;-72
2021/07/30 03:31:47;;;;;;;10.75;7.85;;;12.10;99.90;;;;;;4954871;29;20110;-70
2021/07/30 03:34:16;;;;;;;9.85;7.90;;;12.10;99.90;;;;;;4954622;29;20027;-73
2021/07/30 03:36:42;;;;;;;13.25;8.27;;;12.10;99.90;;;;;;4954113;29;20045;-73
2021/07/30 03:39:08;;;;;;;12.02;7.80;;;12.00;99.90;;;;;;4954779;29;20030;-70
2021/07/30 03:41:35;;;;;;;10.73;7.32;;;12.10;99.90;;;;;;4954375;29;20023;-73
2021/07/30 03:44:00;;;;;;;9.70;7.20;;;12.00;99.90;;;;;;4954029;29;20415;-69
2021/07/30 03:46:26;;;;;;;10.20;7.47;;;12.00;99.90;;;;;;4954514;29;20026;-70
2021/07/30 03:48:51;;;;;;;12.82;8.48;;;12.00;99.90;;;;;;4954817;29;20041;-74
2021/07/30 03:51:17;;;;;;;15.50;8.32;;;12.00;99.90;;;;;;4953682;29;20041;-72
2021/07/30 03:53:43;;;;;;;10.52;7.53;;;12.00;99.90;;;;;;4957587;28;20031;-73
2021/07/30 03:56:12;;;;;;;15.25;8.20;;;12.00;99.90;;;;;;4952836;29;20144;-76
2021/07/30 03:58:39;;;;;;;14.23;7.85;;;12.00;99.90;;;;;;4937379;29;20027;-72
2021/07/30 04:01:08;;;;;;;12.60;7.68;;;12.10;99.90;;;;;;4937192;28;20059;-70
2021/07/30 04:03:34;;;;;;;10.40;8.13;;;12.10;99.90;;;;;;4957389;29;20039;-69
2021/07/30 04:06:03;;;;;;;12.05;7.40;;;12.10;99.90;;;;;;4958506;29;20499;-70
2021/07/30 04:08:29;;;;;;;11.88;8.25;;;12.20;99.90;;;;;;4958088;29;20031;-69
2021/07/30 04:10:55;;;;;;;10.18;7.70;;;12.20;99.90;;;;;;4957770;29;20375;-70
2021/07/30 04:13:20;;;;;;;10.50;7.30;;;12.30;99.90;;;;;;4958105;29;20027;-70
2021/07/30 04:15:46;;;;;;;11.45;8.15;;;12.40;99.90;;;;;;4958314;29;20031;-74
2021/07/30 04:18:12;;;;;;;10.30;7.78;;;12.50;99.90;;;;;;4957639;29;20031;-70
2021/07/30 04:20:40;;;;;;;13.13;7.00;;;12.60;99.90;;;;;;4958069;29;20023;-70
2021/07/30 04:23:06;;;;;;;11.15;7.50;;;12.70;99.90;;;;;;4958009;29;20502;-72
2021/07/30 04:25:32;;;;;;;10.05;7.55;;;12.70;99.90;;;;;;4956958;29;20023;-71
2021/07/30 04:27:58;;;;;;;14.23;7.97;;;12.80;99.90;;;;;;4957963;29;20027;-75
2021/07/30 04:30:23;;;;;;;10.07;7.15;;;12.90;99.90;;;;;;4957702;29;20034;-70
2021/07/30 04:32:52;;;;;;;9.23;7.53;;;12.90;99.90;;;;;;4940028;29;20105;-70
2021/07/30 04:35:17;;;;;;;10.48;7.57;;;12.90;99.90;;;;;;4957637;29;20031;-70
2021/07/30 04:37:43;;;;;;;11.13;7.60;;;13.00;99.90;;;;;;4957882;29;20490;-69
2021/07/30 04:40:09;;;;;;;13.05;7.43;;;13.00;99.90;;;;;;4957004;29;20027;-70
2021/07/30 04:42:34;;;;;;;11.13;7.90;;;13.00;99.90;;;;;;4957210;29;20023;-70
2021/07/30 04:45:00;;;;;;;12.27;7.90;;;13.00;99.90;;;;;;4957695;29;20063;-75
2021/07/30 04:47:25;;;;;;;14.15;8.05;;;13.10;99.90;;;;;;4956768;29;20019;-77
2021/07/30 04:49:51;;;;;;;11.88;7.53;;;13.10;99.90;;;;;;4957674;29;20023;-70
2021/07/30 04:52:16;;;;;;;14.73;7.38;;;13.20;99.90;;;;;;4957328;29;20019;-69
2021/07/30 04:54:42;;;;;;;9.48;7.38;;;13.30;99.90;;;;;;4956790;29;20027;-70
2021/07/30 04:57:09;;;;;;;10.85;7.35;;;13.40;99.90;;;;;;4957460;29;20081;-71
2021/07/30 04:59:34;;;;;;;11.77;8.32;;;13.40;99.90;;;;;;4956382;29;20126;-71
2021/07/30 05:02:00;;;;;;;10.43;7.55;;;13.50;99.90;;;;;;4957350;29;20158;-73
2021/07/30 05:04:26;;;;;;;12.32;7.20;;;13.60;99.90;;;;;;4956984;29;20035;-70
2021/07/30 05:06:51;;;;;;;11.48;7.55;;;13.60;99.90;;;;;;4939613;29;20030;-69
2021/07/30 05:09:17;;;;;;;12.25;7.72;;;13.70;99.90;;;;;;4939694;28;20019;-69
2021/07/30 05:11:42;;;;;;;9.95;7.22;;;13.80;99.90;;;;;;4957134;29;20118;-75
2021/07/30 05:14:08;;;;;;;9.27;7.45;;;13.90;99.90;;;;;;4938466;29;20039;-69
2021/07/30 05:16:34;;;;;;;10.85;7.75;;;13.90;99.90;;;;;;4956757;29;20031;-69
2021/07/30 05:19:00;;;;;;;11.13;7.10;;;14.00;99.90;;;;;;4939742;29;20031;-70
2021/07/30 05:21:26;;;;;;;10.65;6.95;;;14.00;99.90;;;;;;4955962;29;20027;-69
2021/07/30 05:23:52;;;;;;;13.55;7.68;;;14.00;99.90;;;;;;4956797;29;20085;-69
2021/07/30 05:26:17;;;;;;;11.45;7.40;;;14.10;99.90;;;;;;4956562;29;20019;-69
2021/07/30 05:28:43;;;;;;;12.98;7.35;;;14.10;99.90;;;;;;4956144;29;20067;-70
2021/07/30 05:31:18;;;;;;;12.95;7.38;;;14.10;99.90;;;;;;4956694;29;20027;-70
2021/07/30 05:33:45;;;;;;;11.65;7.25;;;14.10;99.90;;;;;;4956863;29;20047;-70
2021/07/30 05:36:19;;;;;;;10.38;8.32;;;14.20;99.90;;;;;;4955942;29;20027;-70
2021/07/30 05:38:45;;;;;;;8.50;6.82;;;14.30;99.90;;;;;;4956813;29;20050;-69
2021/07/30 05:41:11;;;;;;;13.18;7.45;;;14.30;99.90;;;;;;4956340;29;20023;-69
2021/07/30 05:43:41;;;;;;;16.48;8.45;;;14.50;99.90;;;;;;4955944;29;20360;-70
2021/07/30 05:46:08;;;;;;;10.85;7.15;;;14.70;99.90;;;;;;4939440;29;20031;-73
2021/07/30 05:48:33;;;;;;;11.13;7.90;;;14.90;99.90;;;;;;4938969;29;20458;-70
2021/07/30 05:50:59;;;;;;;12.05;8.07;;;15.00;99.90;;;;;;4955610;29;20106;-72
2021/07/30 05:53:25;;;;;;;11.70;7.10;;;15.20;99.90;;;;;;4956235;29;20027;-70
2021/07/30 05:55:50;;;;;;;9.05;6.55;;;15.40;99.90;;;;;;4955699;29;20020;-71
2021/07/30 05:58:16;;;;;;;12.88;7.30;;;15.50;99.90;;;;;;4956048;29;20476;-73
2021/07/30 06:00:42;;;;;;;11.73;6.97;;;15.60;99.90;;;;;;4956057;29;20499;-70
2021/07/30 06:03:07;;;;;;;11.10;7.32;;;15.70;99.90;;;;;;4954535;28;20035;-69
2021/07/30 06:05:33;;;;;;;12.55;7.00;;;15.80;99.90;;;;;;4954317;29;20031;-70
2021/07/30 06:07:59;;;;;;;12.50;7.05;;;15.90;99.90;;;;;;4943827;29;20027;-69
2021/07/30 06:10:25;;;;;;;10.32;6.53;;;16.00;99.90;;;;;;4953555;29;20023;-72
2021/07/30 06:12:52;;;;;;;12.77;7.35;;;16.20;99.90;;;;;;4954761;29;20078;-70
2021/07/30 06:15:22;;;;;;;11.80;7.60;;;16.40;99.90;;;;;;4955354;28;20030;-75
2021/07/30 06:17:47;;;;;;;9.90;7.03;;;16.50;99.90;;;;;;4953721;29;20087;-70
2021/07/30 06:20:14;;;;;;;11.25;6.85;;;16.70;99.90;;;;;;4944018;29;20023;-70
2021/07/30 06:22:39;;;;;;;12.95;7.80;;;16.80;99.90;;;;;;4940607;29;20031;-70
2021/07/30 06:25:06;;;;;;;15.93;8.35;;;16.90;99.90;;;;;;4957476;28;20496;-70
2021/07/30 06:27:34;;;;;;;12.07;7.90;;;17.00;99.90;;;;;;4951873;29;20432;-69
2021/07/30 06:30:03;;;;;;;11.70;7.65;;;17.00;99.90;;;;;;4955331;29;20043;-71
2021/07/30 06:32:29;;;;;;;11.05;7.43;;;17.00;99.90;;;;;;4954941;29;20384;-80
2021/07/30 06:34:55;;;;;;;12.85;7.70;;;17.00;99.90;;;;;;4939948;29;20479;-70
2021/07/30 06:37:20;;;;;;;10.10;7.53;;;17.10;99.90;;;;;;4964319;28;20815;-70
2021/07/30 06:39:46;;;;;;;13.80;7.38;;;17.20;99.90;;;;;;4954039;29;20455;-70
2021/07/30 06:42:11;;;;;;;12.55;7.45;;;17.40;99.90;;;;;;4968199;28;20491;-72
2021/07/30 06:44:37;;;;;;;12.80;8.13;;;17.50;99.90;;;;;;4974748;28;20122;-71
2021/07/30 06:47:03;;;;;;;11.40;7.68;;;17.50;99.90;;;;;;4937719;29;20503;-71
2021/07/30 06:49:29;;;;;;;14.27;7.95;;;17.60;99.90;;;;;;4954533;29;20035;-70
2021/07/30 06:51:55;;;;;;;12.65;7.53;;;17.60;99.90;;;;;;4965562;28;20027;-71
2021/07/30 06:54:20;;;;;;;12.57;8.18;;;17.70;99.90;;;;;;4954823;29;20023;-70
2021/07/30 06:56:46;;;;;;;10.77;7.40;;;17.80;99.90;;;;;;4955139;29;20487;-70
2021/07/30 06:59:12;;;;;;;12.40;7.50;;;17.90;99.90;;;;;;4954079;29;20043;-70
2021/07/30 07:01:38;;;;;;;15.23;7.18;;;18.00;99.90;;;;;;4955536;28;20019;-70
2021/07/30 07:04:04;;;;;;;10.57;6.82;;;18.20;99.90;;;;;;4953950;29;20046;-70
2021/07/30 07:06:29;;;;;;;9.07;6.80;;;18.30;99.90;;;;;;4952934;29;20020;-71
2021/07/30 07:08:56;;;;;;;9.35;6.75;;;18.50;99.90;;;;;;4955024;29;20032;-69
2021/07/30 07:11:21;;;;;;;11.43;6.78;;;18.70;99.90;;;;;;4954633;29;20460;-69
2021/07/30 07:13:47;;;;;;;14.35;7.10;;;18.70;99.90;;;;;;4954571;29;20037;-70
2021/07/30 07:16:17;;;;;;;10.02;6.45;;;18.80;99.90;;;;;;4954842;29;20373;-71
2021/07/30 07:18:42;;;;;;;12.98;6.85;;;19.00;99.90;;;;;;4955195;29;20051;-70
2021/07/30 07:21:09;;;;;;;11.18;6.93;;;19.10;99.90;;;;;;4954297;29;20061;-71
2021/07/30 07:23:34;;;;;;;12.70;7.13;;;19.10;99.90;;;;;;4937508;29;20043;-70
2021/07/30 07:26:01;;;;;;;11.32;6.75;;;19.10;99.90;;;;;;4954806;29;20020;-70
2021/07/30 07:28:27;;;;;;;10.90;6.18;;;19.20;99.90;;;;;;4954096;29;20156;-70
2021/07/30 07:30:54;;;;;;;13.18;6.82;;;19.20;99.90;;;;;;4954752;29;20102;-69
2021/07/30 07:33:19;;;;;;;11.68;6.18;;;19.20;99.90;;;;;;4937169;29;20027;-70
2021/07/30 07:35:45;;;;;;;11.20;5.97;;;19.20;99.90;;;;;;4947384;29;20039;-68
2021/07/30 07:38:10;;;;;;;10.23;6.22;;;19.20;99.90;;;;;;4949409;29;20027;-70
2021/07/30 07:40:36;;;;;;;14.93;6.80;;;19.20;99.90;;;;;;4953726;29;20375;-71
2021/07/30 07:43:02;;;;;;;9.48;6.07;;;19.10;99.90;;;;;;4952316;29;20034;-70
2021/07/30 07:45:28;;;;;;;10.15;5.70;;;19.10;99.90;;;;;;4952818;29;20089;-72
2021/07/30 07:47:54;;;;;;;10.88;5.90;;;19.20;99.90;;;;;;4954403;29;20471;-70
2021/07/30 07:50:20;;;;;;;12.63;6.85;;;19.30;99.90;;;;;;4952785;29;20038;-70
2021/07/30 07:52:46;;;;;;;11.50;6.38;;;19.40;99.90;;;;;;4954316;29;20031;-71
2021/07/30 07:55:11;;;;;;;10.55;6.78;;;19.50;99.90;;;;;;4935176;29;20035;-70
2021/07/30 07:57:41;;;;;;;9.10;5.60;;;19.60;99.90;;;;;;4952942;29;20042;-70
2021/07/30 08:00:08;;;;;;;11.77;6.78;;;19.80;99.90;;;;;;4936975;29;20126;-73
2021/07/30 08:02:34;;;;;;;8.40;6.20;;;19.90;99.90;;;;;;4952285;29;20066;-70
2021/07/30 08:04:59;;;;;;;9.98;5.85;;;20.00;99.90;;;;;;4951941;29;20384;-71
2021/07/30 08:07:25;;;;;;;9.60;6.00;;;20.20;99.90;;;;;;4951849;29;20380;-71
2021/07/30 08:09:51;;;;;;;13.07;6.22;;;20.30;99.90;;;;;;4952258;29;20039;-72
2021/07/30 08:12:17;;;;;;;10.93;6.47;;;20.40;99.90;;;;;;4953343;29;20020;-70
2021/07/30 08:14:43;;;;;;;10.20;6.30;;;20.60;99.90;;;;;;4951831;29;20469;-73
2021/07/30 08:17:08;;;;;;;8.63;6.13;;;20.70;99.90;;;;;;4951766;29;20376;-72
2021/07/30 08:19:35;;;;;;;10.32;5.53;;;20.80;99.90;;;;;;4952883;29;20032;-70
2021/07/30 08:22:02;;;;;;;9.35;5.10;;;20.90;99.90;;;;;;4953894;29;20106;-70
2021/07/30 08:24:28;;;;;;;9.45;5.40;;;21.00;99.90;;;;;;4952793;29;20118;-70
2021/07/30 08:26:54;;;;;;;9.95;5.85;;;21.10;99.90;;;;;;4953243;29;20122;-71
2021/07/30 08:29:19;;;;;;;10.13;5.45;;;21.30;99.90;;;;;;4953508;29;20024;-71
2021/07/30 08:31:45;;;;;;;7.05;4.22;;;21.50;99.90;;;;;;4952552;29;20035;-71
2021/07/30 08:34:12;;;;;;;11.25;4.53;;;21.70;99.90;;;;;;4952983;29;20070;-71
2021/07/30 08:36:37;;;;;;;7.65;4.10;;;21.90;99.90;;;;;;4953665;29;20024;-71
2021/07/30 08:39:03;;;;;;;7.45;3.60;;;22.00;99.90;;;;;;4952720;29;20031;-72
2021/07/30 08:41:28;;;;;;;12.90;4.32;;;22.00;99.90;;;;;;4952908;28;20020;-72
2021/07/30 08:43:56;;;;;;;7.80;3.78;;;22.10;99.90;;;;;;4953286;29;20126;-73
2021/07/30 08:46:30;;;;;;;6.90;3.70;;;22.10;99.90;;;;;;4935373;29;20178;-74
2021/07/30 08:48:56;;;;;;;7.68;3.72;;;22.00;99.90;;;;;;4947179;28;20035;-72
2021/07/30 08:51:23;;;;;;;9.00;3.88;;;22.00;99.90;;;;;;4956436;29;20504;-73
2021/07/30 08:53:49;;;;;;;6.78;3.30;;;21.90;99.90;;;;;;4955837;29;20380;-72
2021/07/30 08:56:15;;;;;;;9.43;3.88;;;22.00;99.90;;;;;;4955667;29;20437;-71
2021/07/30 08:58:42;;;;;;;7.78;3.72;;;22.00;99.90;;;;;;4937802;29;20055;-72
2021/07/30 09:01:10;;;;;;;7.53;3.55;;;22.00;99.90;;;;;;4956385;29;20519;-72
2021/07/30 09:03:43;;;;;;;6.85;3.67;;;22.20;99.90;;;;;;4955535;29;20069;-72
2021/07/30 09:06:23;;;;;;;6.38;3.08;;;22.20;99.90;;;;;;4938378;29;20034;-75
2021/07/30 09:08:54;;;;;;;5.72;3.05;;;22.30;99.90;;;;;;4956055;29;20031;-72
2021/07/30 09:11:37;;;;;;;7.00;3.35;;;22.40;99.90;;;;;;4939276;29;20043;-72
2021/07/30 09:14:05;;;;;;;4.90;3.10;;;22.50;99.70;;;;;;4938423;29;20027;-72
2021/07/30 09:16:49;;;;;;;6.93;3.35;;;22.60;99.70;;;;;;4955490;29;20118;-72
2021/07/30 09:19:15;;;;;;;5.45;2.83;;;22.60;99.50;;;;;;4956296;29;20102;-72
2021/07/30 09:21:40;;;;;;;5.57;3.30;;;22.80;98.90;;;;;;4938346;29;20118;-72
2021/07/30 09:24:09;;;;;;;6.68;3.47;;;23.00;99.00;;;;;;4939253;29;20042;-71
2021/07/30 09:26:43;;;;;;;4.75;2.80;;;23.10;98.90;;;;;;4956166;29;20031;-72
2021/07/30 09:29:16;;;;;;;4.93;3.35;;;23.20;98.50;;;;;;4956704;29;20031;-72
2021/07/30 09:31:49;;;;;;;6.03;2.90;;;23.40;99.20;;;;;;4937805;29;20597;-72
2021/07/30 09:34:32;;;;;;;4.85;3.33;;;23.40;99.40;;;;;;4954400;29;20487;-75
2021/07/30 09:37:07;;;;;;;6.18;3.00;;;23.40;98.70;;;;;;4955045;29;20472;-79
2021/07/30 09:39:32;;;;;;;6.10;3.42;;;23.40;99.00;;;;;;4955384;29;20062;-70
2021/07/30 09:42:08;;;;;;;6.35;3.03;;;23.40;99.00;;;;;;4937765;29;20480;-72
2021/07/30 09:44:36;;;;;;;6.35;3.20;;;23.60;98.60;;;;;;4955281;29;20038;-74
2021/07/30 09:47:06;;;;;;;5.57;3.20;;;23.70;96.60;;;;;;4938380;29;20027;-72
2021/07/30 09:49:59;;;;;;;13.07;3.60;;;23.90;96.80;;;;;;4938190;29;20094;-75
2021/07/30 09:52:29;;;;;;;5.78;3.20;;;24.30;96.60;;;;;;4950081;29;20082;-74
2021/07/30 09:55:03;;;;;;;5.72;3.63;;;24.60;96.00;;;;;;4955595;28;20026;-73
2021/07/30 09:57:31;;;;;;;5.70;3.45;;;24.90;95.70;;;;;;4975162;28;20027;-73
2021/07/30 10:00:06;;;;;;;5.45;3.08;;;25.10;95.40;;;;;;4954562;28;20047;-72
2021/07/30 10:02:33;;;;;;;4.13;3.20;;;25.30;95.10;;;;;;4953912;29;20030;-73
2021/07/30 10:05:00;;;;;;;4.47;2.80;;;25.50;94.30;;;;;;4946377;29;20389;-72
2021/07/30 10:07:27;;;;;;;3.80;3.40;;;25.60;93.90;;;;;;4933941;29;20016;-73
2021/07/30 10:10:32;;;;;;;3.75;3.08;;;25.70;95.00;;;;;;4934977;29;20035;-86
2021/07/30 10:13:54;;;;;;;4.38;3.40;;;25.90;94.30;;;;;;4940402;29;20127;-87
2021/07/30 10:17:00;;;;;;;8.27;4.45;;;26.00;94.00;;;;;;4925223;29;20024;-86
2021/07/30 10:19:28;;;;;;;5.05;3.28;;;26.20;93.60;;;;;;4935617;29;20055;-74
2021/07/30 10:21:55;;;;;;;4.90;2.75;;;26.40;92.40;;;;;;4938560;29;20034;-71
2021/07/30 10:24:22;;;;;;;7.32;3.15;;;26.60;92.20;;;;;;4935328;29;20489;-71
2021/07/30 10:26:48;;;;;;;6.50;3.78;;;26.70;92.50;;;;;;4939633;29;20102;-72
2021/07/30 10:32:45;;;;;;;5.18;2.90;;;26.80;91.10;;;;;;4934897;29;20377;-71
2021/07/30 10:35:12;;;;;;;4.32;3.20;;;26.60;91.30;;;;;;4943656;29;20031;-71
2021/07/30 10:37:43;;;;;;;5.88;3.53;;;26.60;91.80;;;;;;4939783;29;20126;-74
2021/07/30 10:40:11;;;;;;;5.15;3.13;;;26.50;91.40;;;;;;4936619;29;20024;-75
2021/07/30 10:43:04;;;;;;;4.53;3.45;;;26.40;91.60;;;;;;4937489;29;20035;-72
2021/07/30 10:45:44;;;;;;;6.65;4.40;;;26.30;92.30;;;;;;4947032;29;20027;-73
2021/07/30 10:48:15;;;;;;;4.28;3.40;;;26.20;91.90;;;;;;4953575;29;20037;-73
2021/07/30 10:50:42;;;;;;;;;;;26.10;91.60;;;;;;4944042;29;20035;-76
2021/07/30 10:53:39;;;;;;;4.35;3.40;;;25.90;92.00;;;;;;4946795;28;19910;-74
2021/07/30 10:56:14;;;;;;;5.57;3.42;;;25.90;91.90;;;;;;4954119;29;20042;-73
2021/07/30 10:58:40;;;;;;;3.85;2.78;;;25.90;91.90;;;;;;4954558;29;20480;-73
2021/07/30 11:01:06;;;;;;;6.43;3.17;;;25.90;91.50;;;;;;4969664;28;20054;-72
2021/07/30 11:04:04;;;;;;;8.00;2.97;;;25.80;91.00;;;;;;4970124;28;20038;-77
2021/07/30 11:06:52;;;;;;;6.00;3.20;;;25.80;90.90;;;;;;4954142;28;20027;-73
2021/07/30 11:09:18;;;;;;;3.80;2.78;;;25.90;89.90;;;;;;4955753;28;20024;-73
2021/07/30 11:11:52;;;;;;;3.67;2.47;;;26.20;90.30;;;;;;4942306;28;20038;-72
2021/07/30 11:14:41;;;;;;;5.68;3.10;;;26.60;89.50;;;;;;4969442;28;20066;-72
2021/07/30 11:17:09;;;;;;;3.67;2.58;;;26.80;90.60;;;;;;4942325;28;20027;-71
2021/07/30 11:19:46;;;;;;;6.07;3.10;;;26.90;89.30;;;;;;4963941;28;20085;-74
2021/07/30 11:22:16;;;;;;;4.88;3.33;;;27.00;90.20;;;;;;4962507;28;20031;-73
2021/07/30 11:25:02;;;;;;;5.93;3.00;;;27.20;88.40;;;;;;4937555;29;20035;-72
2021/07/30 11:27:27;;;;;;;3.55;2.55;;;27.00;89.10;;;;;;4939012;29;20090;-77
2021/07/30 11:29:55;;;;;;;5.70;2.95;;;27.00;89.30;;;;;;4937584;29;20027;-73
2021/07/30 11:32:22;;;;;;;4.53;2.55;;;27.10;85.60;;;;;;4963355;28;20022;-72
2021/07/30 11:34:51;;;;;;;4.18;2.65;;;27.10;87.20;;;;;;4962363;28;20031;-73
2021/07/30 11:37:23;;;;;;;5.57;2.95;;;27.00;85.70;;;;;;4968410;28;20035;-88
2021/07/30 11:39:53;;;;;;;3.40;2.25;;;26.90;85.40;;;;;;4953882;28;20085;-73
2021/07/30 11:42:28;;;;;;;4.13;3.05;;;26.90;87.80;;;;;;4953505;28;20430;-75
2021/07/30 11:44:56;;;;;;;5.03;2.90;;;27.20;88.50;;;;;;4972640;28;20038;-81
2021/07/30 11:47:22;;;;;;;4.05;2.58;;;27.30;88.50;;;;;;4956395;28;20082;-74
2021/07/30 11:50:00;;;;;;;12.52;3.92;;;27.60;88.10;;;;;;4954154;28;20034;-74
2021/07/30 11:52:30;;;;;;;10.65;3.08;;;28.00;87.70;;;;;;4956549;28;20026;-82
2021/07/30 11:55:16;;;;;;;3.97;2.77;;;28.20;86.20;;;;;;4951917;28;20023;-81
2021/07/30 11:57:46;;;;;;;7.22;2.88;;;28.30;86.60;;;;;;4952932;28;20198;-82
2021/07/30 12:00:24;;;;;;;3.63;2.65;;;28.30;86.50;;;;;;4944122;28;20110;-78
2021/07/30 12:02:50;;;;;;;4.18;3.03;;;28.40;85.00;;;;;;4938016;29;20491;-79
2021/07/30 12:05:15;;;;;;;5.70;3.47;;;28.60;84.60;;;;;;4936407;29;20032;-79
2021/07/30 12:07:41;;;;;;;3.05;2.58;;;28.60;82.60;;;;;;4949325;28;20031;-79
2021/07/30 12:10:09;;;;;;;5.72;2.63;;;28.50;82.10;;;;;;4937915;28;20031;-79
2021/07/30 12:12:41;;;;;;;5.63;2.85;;;28.40;80.90;;;;;;4939954;29;20031;-79
2021/07/30 12:15:11;;;;;;;5.78;2.58;;;28.30;82.80;;;;;;4940998;28;20019;-81
2021/07/30 12:17:38;;;;;;;3.58;2.50;;;28.30;81.80;;;;;;4955178;28;20542;-80
2021/07/30 12:20:10;;;;;;;3.53;3.00;;;28.00;82.50;;;;;;4954442;28;20058;-79
2021/07/30 12:22:47;;;;;;;4.50;3.00;;;27.60;82.10;;;;;;4944578;28;20030;-82
2021/07/30 12:25:18;;;;;;;5.85;3.22;;;27.20;84.50;;;;;;4965705;28;20035;-77
2021/07/30 12:27:45;;;;;;;5.05;2.72;;;27.20;85.30;;;;;;4941859;29;20384;-77
2021/07/30 12:30:29;;;;;;;3.70;2.83;;;27.30;83.30;;;;;;4940603;29;20114;-78
2021/07/30 12:32:55;;;;;;;3.38;2.63;;;27.30;84.30;;;;;;4940782;28;20019;-77
2021/07/30 12:35:31;;;;;;;3.97;2.67;;;27.10;84.30;;;;;;4951343;28;20027;-76
2021/07/30 12:38:16;;;;;;;3.03;2.55;;;26.60;84.10;;;;;;4940462;29;20035;-74
2021/07/30 12:40:43;;;;;;;10.02;3.78;;;26.10;85.20;;;;;;4943604;29;20383;-74
2021/07/30 12:43:18;;;;;;;7.10;2.92;;;25.70;85.90;;;;;;4961048;28;20041;-83
2021/07/30 12:45:51;;;;;;;8.90;4.20;;;25.30;88.10;;;;;;4959384;28;20098;-77
2021/07/30 12:48:21;;;;;;;17.67;11.95;;;25.10;89.30;;;;;;4953957;28;20030;-75
2021/07/30 12:50:48;;;;;;;10.65;7.50;;;24.80;90.00;;;;;;4942519;28;20039;-79
2021/07/30 12:53:16;;;;;;;5.25;3.95;;;24.60;91.10;;;;;;4954240;28;20081;-85